createdAt,value
2018-09-05T00:00:21.443Z,82.25
2018-09-05T00:02:49.504Z,81.62
2018-09-05T00:05:17.522Z,82.01
2018-09-05T00:07:45.565Z,81.71
2018-09-05T00:10:13.560Z,82.50
2018-09-05T00:12:41.572Z,80.95
2018-09-05T00:15:09.593Z,81.39
2018-09-05T00:17:37.595Z,82.03
2018-09-05T00:20:05.605Z,82.30
2018-09-05T00:22:33.605Z,83.16
2018-09-05T00:25:01.638Z,82.94
2018-09-05T00:27:29.676Z,84.67
2018-09-05T00:29:57.689Z,83.26
2018-09-05T00:32:25.717Z,83.50
2018-09-05T00:34:53.720Z,83.19
2018-09-05T00:37:21.811Z,83.02
2018-09-05T00:39:49.848Z,82.79
2018-09-05T00:42:17.840Z,83.02
2018-09-05T00:44:45.844Z,81.81
2018-09-05T00:47:13.890Z,81.31
2018-09-05T00:49:41.876Z,81.11
2018-09-05T00:52:09.905Z,81.24
2018-09-05T00:54:37.925Z,81.35
2018-09-05T00:57:05.948Z,81.63
2018-09-05T00:59:33.938Z,81.10
2018-09-05T01:02:02.129Z,81.75
2018-09-05T01:04:30.257Z,80.27
2018-09-05T01:06:58.288Z,80.72
2018-09-05T01:09:26.275Z,80.43
2018-09-05T01:11:54.364Z,80.35
2018-09-05T01:14:22.405Z,80.47
2018-09-05T01:16:50.412Z,80.41
2018-09-05T01:19:18.436Z,79.51
2018-09-05T01:21:46.457Z,80.15
2018-09-05T01:24:14.499Z,80.44
2018-09-05T01:26:42.514Z,79.44
2018-09-05T01:29:10.541Z,79.27
2018-09-05T01:31:38.561Z,79.85
2018-09-05T01:34:06.607Z,79.17
2018-09-05T01:36:34.588Z,79.45
2018-09-05T01:39:02.628Z,80.04
2018-09-05T01:41:30.705Z,79.64
2018-09-05T01:43:58.728Z,79.42
2018-09-05T01:46:26.772Z,78.84
2018-09-05T01:48:54.906Z,79.26
2018-09-05T01:51:22.900Z,78.00
2018-09-05T01:53:50.922Z,77.51
2018-09-05T01:56:18.996Z,77.93
2018-09-05T01:58:46.997Z,78.55
2018-09-05T02:01:14.981Z,80.06
2018-09-05T02:03:43.016Z,81.19
2018-09-05T02:06:11.033Z,80.67
2018-09-05T02:08:39.081Z,81.16
2018-09-05T02:11:07.121Z,81.71
2018-09-05T02:13:35.149Z,81.51
2018-09-05T02:16:03.197Z,81.96
2018-09-05T02:18:31.201Z,81.67
2018-09-05T02:20:59.218Z,81.50
2018-09-05T02:23:27.239Z,81.97
2018-09-05T02:25:55.244Z,82.31
2018-09-05T02:28:23.260Z,83.02
2018-09-05T02:30:51.365Z,81.96
2018-09-05T02:33:19.369Z,82.73
2018-09-05T02:35:47.401Z,83.58
2018-09-05T02:38:15.434Z,82.90
2018-09-05T02:40:43.625Z,83.33
2018-09-05T02:43:11.683Z,84.83
2018-09-05T02:45:39.685Z,85.32
2018-09-05T02:48:07.704Z,84.88
2018-09-05T02:50:35.734Z,84.15
2018-09-05T02:53:03.765Z,84.23
2018-09-05T02:55:37.345Z,83.63
2018-09-05T02:58:05.644Z,83.34
2018-09-05T03:00:33.892Z,84.57
2018-09-05T03:03:01.903Z,84.34
2018-09-05T03:05:30.012Z,83.97
2018-09-05T03:07:58.017Z,84.47
2018-09-05T03:10:26.067Z,83.78
2018-09-05T03:12:54.114Z,83.14
2018-09-05T03:15:22.145Z,83.10
2018-09-05T03:17:50.120Z,83.37
2018-09-05T03:20:18.129Z,84.68
2018-09-05T03:22:46.202Z,84.60
2018-09-05T03:25:14.367Z,83.19
2018-09-05T03:27:42.456Z,84.66
2018-09-05T03:30:10.721Z,84.59
2018-09-05T03:32:38.858Z,85.03
2018-09-05T03:35:06.960Z,84.52
2018-09-05T03:37:34.992Z,84.29
2018-09-05T03:40:03.126Z,83.42
2018-09-05T03:42:31.147Z,83.83
2018-09-05T03:44:59.197Z,83.68
2018-09-05T03:47:27.290Z,83.35
2018-09-05T03:49:55.321Z,83.37
2018-09-05T03:52:23.360Z,83.90
2018-09-05T03:54:51.396Z,85.76
2018-09-05T03:57:19.761Z,85.19
2018-09-05T03:59:47.794Z,84.97
2018-09-05T04:02:15.881Z,85.50
2018-09-05T04:04:43.905Z,86.21
2018-09-05T04:07:11.923Z,86.98
2018-09-05T04:09:39.921Z,87.12
2018-09-05T04:12:07.962Z,86.75
2018-09-05T04:14:35.948Z,86.77
2018-09-05T04:17:03.982Z,87.43
2018-09-05T04:19:32.018Z,88.16
2018-09-05T04:22:00.017Z,86.67
2018-09-05T04:24:28.002Z,86.24
2018-09-05T04:26:56.073Z,85.49
2018-09-05T04:29:24.102Z,86.19
2018-09-05T04:31:52.055Z,85.79
2018-09-05T04:34:20.045Z,85.57
2018-09-05T04:36:48.116Z,84.11
2018-09-05T04:39:16.233Z,84.80
2018-09-05T04:41:44.236Z,83.89
2018-09-05T04:44:12.333Z,84.63
2018-09-05T04:46:40.368Z,83.94
2018-09-05T04:49:08.393Z,84.31
2018-09-05T04:52:16.480Z,84.52
2018-09-05T04:54:44.512Z,85.47
2018-09-05T04:57:12.593Z,87.08
2018-09-05T04:59:40.705Z,87.59
2018-09-05T05:02:08.743Z,87.53
2018-09-05T05:04:36.902Z,88.26
2018-09-05T05:07:04.880Z,88.12
2018-09-05T05:09:33.084Z,88.27
2018-09-05T05:12:01.081Z,87.18
2018-09-05T05:14:29.096Z,85.99
2018-09-05T05:16:57.347Z,83.01
2018-09-05T05:19:25.345Z,80.41
2018-09-05T05:21:53.360Z,77.55
2018-09-05T05:24:21.376Z,75.55
2018-09-05T05:26:49.423Z,73.48
2018-09-05T05:29:17.421Z,72.61
2018-09-05T05:31:45.438Z,71.07
2018-09-05T05:34:13.451Z,69.57
2018-09-05T05:36:41.521Z,67.38
2018-09-05T05:39:10.965Z,67.85
2018-09-05T05:41:39.057Z,66.09
2018-09-05T05:44:07.120Z,65.44
2018-09-05T05:46:35.412Z,63.38
2018-09-05T05:49:03.761Z,63.08
2018-09-05T05:51:31.909Z,61.94
2018-09-05T05:54:00.176Z,62.26
2018-09-05T05:56:28.177Z,61.37
2018-09-05T05:58:56.210Z,59.52
2018-09-05T06:01:24.239Z,58.43
2018-09-05T06:03:52.323Z,57.30
2018-09-05T06:06:20.529Z,55.89
2018-09-05T06:08:48.332Z,54.06
2018-09-05T06:11:16.408Z,55.28
2018-09-05T06:13:44.438Z,53.68
2018-09-05T06:16:12.510Z,51.66
2018-09-05T06:18:41.169Z,49.02
2018-09-05T06:21:09.271Z,46.32
2018-09-05T06:23:37.372Z,45.18
2018-09-05T06:26:05.554Z,46.86
2018-09-05T06:28:33.730Z,47.56
2018-09-05T06:31:01.768Z,51.26
2018-09-05T06:33:29.769Z,50.60
2018-09-05T06:35:57.805Z,50.87
2018-09-05T06:38:25.876Z,56.29
2018-09-05T06:40:53.952Z,60.20
2018-09-05T06:43:21.985Z,63.98
2018-09-05T06:45:49.992Z,66.87
2018-09-05T06:48:18.019Z,72.62
2018-09-05T06:50:46.033Z,76.72
2018-09-05T06:53:14.052Z,79.83
2018-09-05T06:55:42.109Z,82.79
2018-09-05T06:58:10.363Z,85.51
2018-09-05T07:00:38.341Z,85.85
2018-09-05T07:03:06.525Z,87.37
2018-09-05T07:05:34.533Z,87.10
2018-09-05T07:08:02.568Z,88.03
2018-09-05T07:10:30.629Z,89.08
2018-09-05T07:12:58.669Z,90.47
2018-09-05T07:15:26.676Z,89.16
2018-09-05T07:17:54.703Z,87.48
2018-09-05T07:20:22.720Z,87.14
2018-09-05T07:22:50.859Z,85.26
2018-09-05T07:25:18.892Z,85.54
2018-09-05T07:27:46.994Z,84.48
2018-09-05T07:30:16.534Z,83.19
2018-09-05T07:32:44.905Z,82.57
2018-09-05T07:35:12.917Z,81.43
2018-09-05T07:37:40.914Z,80.75
2018-09-05T07:40:08.913Z,77.77
2018-09-05T07:42:36.936Z,76.68
2018-09-05T07:45:04.946Z,75.46
2018-09-05T07:47:32.997Z,72.27
2018-09-05T07:50:01.037Z,67.81
2018-09-05T07:52:29.261Z,63.11
2018-09-05T07:54:57.270Z,55.30
2018-09-05T07:57:25.338Z,51.21
2018-09-05T07:59:53.355Z,50.00
2018-09-05T08:02:21.381Z,49.63
2018-09-05T08:04:49.388Z,50.50
2018-09-05T08:07:17.475Z,50.20
2018-09-05T08:09:45.469Z,48.37
2018-09-05T08:12:13.478Z,47.26
2018-09-05T08:14:41.477Z,46.69
2018-09-05T08:17:09.525Z,45.93
2018-09-05T08:19:37.569Z,45.86
2018-09-05T08:22:05.584Z,47.30
2018-09-05T08:24:33.657Z,45.93
2018-09-05T08:27:01.697Z,45.99
2018-09-05T08:29:29.778Z,45.31
2018-09-05T08:31:57.752Z,47.56
2018-09-05T08:34:25.773Z,48.13
2018-09-05T08:36:54.296Z,48.63
2018-09-05T08:39:21.987Z,48.18
2018-09-05T08:41:50.116Z,47.14
2018-09-05T08:44:18.287Z,47.72
2018-09-05T08:46:46.161Z,48.53
2018-09-05T08:49:14.115Z,46.82
2018-09-05T08:51:42.105Z,45.96
2018-09-05T08:54:10.166Z,46.31
2018-09-05T08:56:38.206Z,47.71
2018-09-05T08:59:06.197Z,48.66
2018-09-05T09:01:34.473Z,52.03
2018-09-05T09:04:02.649Z,54.25
2018-09-05T09:06:30.696Z,55.07
2018-09-05T09:08:58.755Z,55.04
2018-09-05T09:11:26.761Z,53.97
2018-09-05T09:13:54.772Z,54.81
2018-09-05T09:16:22.772Z,53.47
2018-09-05T09:18:50.788Z,55.01
2018-09-05T09:21:18.795Z,54.57
2018-09-05T09:23:46.809Z,55.70
2018-09-05T09:26:14.910Z,55.96
2018-09-05T09:28:42.948Z,56.42
2018-09-05T09:31:10.974Z,58.65
2018-09-05T09:33:38.989Z,60.62
2018-09-05T09:36:07.229Z,59.90
2018-09-05T09:38:35.237Z,60.65
2018-09-05T09:41:03.280Z,60.23
2018-09-05T09:43:31.290Z,59.63
2018-09-05T09:45:59.344Z,61.05
2018-09-05T09:48:27.363Z,59.63
2018-09-05T09:50:55.317Z,59.53
2018-09-05T09:53:23.420Z,59.92
2018-09-05T09:55:51.433Z,59.56
2018-09-05T09:58:19.569Z,60.01
2018-09-05T10:00:53.041Z,61.61
2018-09-05T10:03:26.651Z,62.30
2018-09-05T10:06:00.112Z,61.45
2018-09-05T10:08:31.297Z,63.49
2018-09-05T10:11:02.420Z,62.22
2018-09-05T10:13:35.793Z,62.78
2018-09-05T10:16:09.176Z,63.04
2018-09-05T10:18:39.457Z,62.92
2018-09-05T10:21:07.508Z,63.12
2018-09-05T10:23:35.426Z,63.67
2018-09-05T10:26:03.422Z,62.75
2018-09-05T10:28:31.417Z,59.88
2018-09-05T10:30:59.429Z,58.65
2018-09-05T10:33:27.429Z,56.99
2018-09-05T10:35:55.459Z,57.76
2018-09-05T10:38:23.437Z,58.56
2018-09-05T10:40:51.440Z,56.73
2018-09-05T10:43:19.433Z,56.80
2018-09-05T10:45:47.440Z,56.28
2018-09-05T10:48:15.533Z,56.54
2018-09-05T10:50:43.686Z,54.08
2018-09-05T10:53:11.679Z,53.42
2018-09-05T10:55:39.712Z,53.14
2018-09-05T10:58:07.713Z,52.75
2018-09-05T11:00:35.717Z,53.30
2018-09-05T11:03:03.776Z,53.50
2018-09-05T11:05:31.779Z,53.44
2018-09-05T11:07:59.794Z,54.64
2018-09-05T11:10:27.846Z,54.62
2018-09-05T11:12:55.861Z,54.49
2018-09-05T11:15:23.864Z,54.28
2018-09-05T11:17:51.865Z,55.88
2018-09-05T11:20:19.896Z,54.85
2018-09-05T11:22:47.985Z,53.42
2018-09-05T11:25:16.013Z,54.31
2018-09-05T11:27:44.044Z,53.28
2018-09-05T11:30:12.017Z,52.32
2018-09-05T11:32:40.057Z,51.17
2018-09-05T11:35:08.161Z,49.25
2018-09-05T11:37:36.190Z,51.17
2018-09-05T11:40:04.242Z,51.01
2018-09-05T11:42:32.308Z,48.44
2018-09-05T11:45:00.447Z,47.92
2018-09-05T11:47:28.549Z,48.84
2018-09-05T11:49:56.631Z,48.05
2018-09-05T11:52:24.815Z,49.29
2018-09-05T11:54:52.823Z,48.63
2018-09-05T11:57:21.256Z,47.49
2018-09-05T11:59:49.349Z,47.39
2018-09-05T12:02:17.433Z,44.40
2018-09-05T12:04:45.444Z,45.49
2018-09-05T12:07:13.448Z,45.82
2018-09-05T12:09:41.453Z,46.32
2018-09-05T12:12:09.881Z,45.34
2018-09-05T12:14:37.908Z,46.04
2018-09-05T12:17:05.949Z,42.55
2018-09-05T12:19:33.973Z,42.91
2018-09-05T12:22:01.998Z,44.60
2018-09-05T12:24:30.089Z,43.87
2018-09-05T12:26:58.714Z,42.75
2018-09-05T12:29:29.788Z,42.84
2018-09-05T12:31:57.889Z,42.04
2018-09-05T12:34:26.137Z,42.40
2018-09-05T12:36:54.396Z,42.40
2018-09-05T12:39:22.389Z,42.94
2018-09-05T12:41:50.545Z,42.00
2018-09-05T12:44:18.616Z,41.60
2018-09-05T12:46:46.645Z,41.15
2018-09-05T12:49:14.715Z,41.51
2018-09-05T12:51:42.807Z,42.47
2018-09-05T12:54:11.175Z,43.03
2018-09-05T12:56:39.247Z,42.24
2018-09-05T12:59:07.540Z,41.96
2018-09-05T13:01:35.529Z,41.89
2018-09-05T13:04:03.628Z,41.45
2018-09-05T13:06:31.673Z,41.43
2018-09-05T13:09:00.077Z,41.42
2018-09-05T13:11:28.417Z,40.17
2018-09-05T13:13:56.570Z,40.67
2018-09-05T13:16:24.653Z,39.03
2018-09-05T13:18:52.644Z,39.01
2018-09-05T13:21:20.838Z,40.45
2018-09-05T13:23:49.185Z,40.86
2018-09-05T13:26:17.544Z,40.13
2018-09-05T13:28:45.703Z,41.27
2018-09-05T13:31:13.692Z,40.58
2018-09-05T13:33:41.758Z,39.36
2018-09-05T13:36:09.760Z,37.83
2018-09-05T13:38:37.775Z,38.08
2018-09-05T13:41:05.761Z,38.03
2018-09-05T13:43:33.792Z,37.75
2018-09-05T13:46:01.866Z,37.66
2018-09-05T13:48:29.887Z,37.72
2018-09-05T13:50:57.898Z,37.87
2018-09-05T13:53:25.970Z,38.32
2018-09-05T13:55:53.980Z,39.29
2018-09-05T13:58:22.009Z,39.43
2018-09-05T14:00:50.151Z,38.85
2018-09-05T14:03:18.284Z,38.05
2018-09-05T14:05:46.291Z,36.91
2018-09-05T14:08:14.611Z,36.65
2018-09-05T14:10:42.598Z,37.36
2018-09-05T14:13:10.608Z,37.80
2018-09-05T14:15:38.626Z,38.09
2018-09-05T14:18:06.680Z,37.72
2018-09-05T14:20:34.762Z,37.22
2018-09-05T14:23:02.753Z,37.74
2018-09-05T14:25:30.781Z,36.21
2018-09-05T14:27:58.856Z,35.50
2018-09-05T14:30:26.997Z,37.13
2018-09-05T14:32:54.980Z,37.02
2018-09-05T14:35:22.977Z,36.25
2018-09-05T14:37:51.164Z,36.26
2018-09-05T14:40:19.224Z,35.05
2018-09-05T14:42:47.672Z,35.29
2018-09-05T14:45:16.216Z,35.25
2018-09-05T14:47:44.271Z,34.46
2018-09-05T14:50:12.343Z,35.44
2018-09-05T14:52:40.457Z,34.43
2018-09-05T14:55:08.693Z,35.10
2018-09-05T14:57:36.773Z,35.50
2018-09-05T15:00:05.429Z,35.57
2018-09-05T15:02:33.408Z,35.75
2018-09-05T15:05:01.449Z,35.73
2018-09-05T15:07:29.549Z,34.70
2018-09-05T15:09:57.597Z,34.54
2018-09-05T15:12:25.674Z,33.85
2018-09-05T15:14:53.704Z,34.30
2018-09-05T15:17:21.741Z,34.88
2018-09-05T15:19:50.303Z,37.14
2018-09-05T15:22:18.344Z,34.67
2018-09-05T15:24:46.344Z,34.38
2018-09-05T15:27:14.366Z,34.75
2018-09-05T15:29:42.507Z,33.86
2018-09-05T15:32:10.503Z,33.87
2018-09-05T15:34:38.489Z,34.15
2018-09-05T15:37:06.498Z,34.79
2018-09-05T15:39:34.517Z,34.87
2018-09-05T15:42:02.553Z,34.98
2018-09-05T15:44:37.257Z,34.75
2018-09-05T15:47:05.379Z,34.89
2018-09-05T15:49:33.378Z,35.61
2018-09-05T15:52:01.387Z,34.80
2018-09-05T15:54:29.398Z,35.17
2018-09-05T15:56:57.394Z,34.54
2018-09-05T15:59:25.384Z,34.93
2018-09-05T16:01:54.412Z,34.36
2018-09-05T16:04:22.409Z,34.08
2018-09-05T16:06:50.417Z,34.14
2018-09-05T16:09:18.417Z,36.08
2018-09-05T16:11:46.426Z,33.71
2018-09-05T16:14:14.429Z,35.05
2018-09-05T16:16:42.430Z,33.43
2018-09-05T16:19:10.412Z,34.65
2018-09-05T16:21:38.420Z,34.47
2018-09-05T16:24:06.540Z,34.09
2018-09-05T16:26:34.577Z,35.09
2018-09-05T16:29:02.576Z,35.01
2018-09-05T16:31:30.585Z,35.08
2018-09-05T16:33:58.576Z,34.73
2018-09-05T16:36:26.654Z,35.28
2018-09-05T16:38:54.641Z,34.76
2018-09-05T16:41:22.791Z,35.56
2018-09-05T16:43:50.849Z,35.71
2018-09-05T16:46:18.903Z,34.75
2018-09-05T16:48:47.007Z,35.24
2018-09-05T16:51:15.137Z,35.14
2018-09-05T16:53:43.156Z,35.61
2018-09-05T16:56:11.193Z,35.76
2018-09-05T16:58:39.205Z,36.04
2018-09-05T17:01:07.409Z,36.18
2018-09-05T17:03:35.552Z,35.50
2018-09-05T17:06:03.591Z,35.70
2018-09-05T17:08:31.617Z,36.22
2018-09-05T17:10:59.629Z,35.68
2018-09-05T17:13:27.654Z,35.56
2018-09-05T17:15:55.677Z,36.01
2018-09-05T17:18:23.820Z,35.56
2018-09-05T17:20:51.900Z,36.57
2018-09-05T17:23:19.965Z,35.56
2018-09-05T17:25:47.964Z,35.84
2018-09-05T17:28:16.648Z,36.27
2018-09-05T17:30:44.823Z,35.96
2018-09-05T17:33:12.875Z,35.66
2018-09-05T17:35:40.969Z,35.89
2018-09-05T17:38:09.016Z,36.36
2018-09-05T17:40:37.033Z,36.29
2018-09-05T17:43:05.229Z,37.35
2018-09-05T17:45:33.318Z,37.60
2018-09-05T17:48:01.329Z,37.88
2018-09-05T17:50:30.333Z,37.51
2018-09-05T17:52:58.319Z,37.36
2018-09-05T17:55:26.373Z,38.26
2018-09-05T17:57:54.376Z,38.18
2018-09-05T18:00:22.408Z,38.41
2018-09-05T18:02:50.813Z,39.32
2018-09-05T18:05:18.853Z,40.13
2018-09-05T18:07:46.994Z,41.54
2018-09-05T18:10:15.010Z,41.28
2018-09-05T18:12:43.030Z,42.34
2018-09-05T18:15:11.052Z,42.04
2018-09-05T18:17:39.061Z,42.11
2018-09-05T18:20:07.304Z,42.66
2018-09-05T18:22:35.333Z,41.93
2018-09-05T18:25:03.365Z,42.61
2018-09-05T18:27:31.756Z,42.24
2018-09-05T18:29:59.796Z,42.76
2018-09-05T18:32:27.880Z,42.50
2018-09-05T18:34:55.891Z,43.28
2018-09-05T18:37:23.901Z,44.36
2018-09-05T18:39:52.017Z,44.48
2018-09-05T18:42:20.292Z,44.76
2018-09-05T18:44:48.426Z,45.74
2018-09-05T18:47:16.592Z,45.29
2018-09-05T18:49:44.687Z,45.92
2018-09-05T18:52:12.730Z,45.81
2018-09-05T18:54:40.765Z,46.14
2018-09-05T18:57:08.800Z,46.76
2018-09-05T18:59:37.066Z,47.33
2018-09-05T19:02:05.225Z,48.39
2018-09-05T19:04:33.264Z,49.26
2018-09-05T19:07:01.294Z,49.38
2018-09-05T19:09:29.288Z,49.36
2018-09-05T19:11:57.376Z,49.60
2018-09-05T19:14:25.508Z,50.66
2018-09-05T19:16:53.549Z,51.01
2018-09-05T19:19:21.541Z,51.52
2018-09-05T19:21:49.577Z,51.25
2018-09-05T19:24:17.647Z,51.47
2018-09-05T19:26:45.697Z,52.56
2018-09-05T19:29:13.783Z,53.33
2018-09-05T19:31:41.777Z,53.22
2018-09-05T19:36:39.961Z,53.64
2018-09-05T19:39:09.529Z,53.70
2018-09-05T19:41:38.589Z,52.92
2018-09-05T19:44:06.689Z,53.36
2018-09-05T19:46:34.957Z,52.95
2018-09-05T19:49:03.089Z,53.11
2018-09-05T19:51:31.178Z,53.23
2018-09-05T19:53:59.232Z,52.78
2018-09-05T19:56:27.385Z,53.00
2018-09-05T19:58:55.473Z,53.91
2018-09-05T20:01:23.505Z,54.10
2018-09-05T20:03:51.565Z,54.60
2018-09-05T20:06:20.840Z,54.77
2018-09-05T20:08:48.932Z,55.38
2018-09-05T20:11:16.968Z,56.19
2018-09-05T20:13:44.983Z,56.63
2018-09-05T20:16:13.001Z,55.95
2018-09-05T20:18:41.010Z,55.25
2018-09-05T20:21:09.010Z,56.38
2018-09-05T20:23:37.122Z,56.47
2018-09-05T20:26:05.089Z,56.68
2018-09-05T20:28:33.115Z,56.21
2018-09-05T20:31:01.095Z,57.06
2018-09-05T20:33:29.095Z,57.33
2018-09-05T20:35:57.499Z,57.96
2018-09-05T20:38:25.733Z,58.97
2018-09-05T20:40:53.772Z,59.21
2018-09-05T20:43:21.785Z,58.33
2018-09-05T20:45:49.902Z,59.16
2018-09-05T20:48:17.916Z,60.70
2018-09-05T20:50:45.953Z,61.39
2018-09-05T20:53:14.073Z,60.38
2018-09-05T20:55:42.201Z,61.61
2018-09-05T20:58:10.246Z,61.90
2018-09-05T21:00:38.241Z,61.85
2018-09-05T21:03:06.238Z,62.75
2018-09-05T21:05:34.246Z,63.62
2018-09-05T21:08:02.281Z,65.17
2018-09-05T21:10:30.292Z,65.42
2018-09-05T21:12:58.497Z,65.61
2018-09-05T21:15:26.520Z,65.94
2018-09-05T21:17:54.672Z,66.71
2018-09-05T21:20:22.714Z,67.53
2018-09-05T21:22:50.718Z,67.63
2018-09-05T21:25:18.759Z,67.32
2018-09-05T21:27:46.754Z,67.01
2018-09-05T21:30:14.759Z,67.66
2018-09-05T21:32:42.843Z,67.11
2018-09-05T21:35:10.822Z,68.25
2018-09-05T21:37:38.822Z,68.04
2018-09-05T21:40:07.102Z,68.31
2018-09-05T21:42:35.105Z,69.33
2018-09-05T21:45:03.099Z,68.29
2018-09-05T21:47:31.118Z,68.45
2018-09-05T21:49:59.144Z,68.21
2018-09-05T21:52:27.221Z,68.42
2018-09-05T21:54:55.745Z,69.35
2018-09-05T21:57:23.789Z,69.93
2018-09-05T21:59:52.086Z,69.96
2018-09-05T22:02:20.106Z,69.32
2018-09-05T22:04:48.142Z,69.15
2018-09-05T22:07:16.345Z,70.17
2018-09-05T22:09:44.488Z,70.35
2018-09-05T22:12:12.497Z,70.51
2018-09-05T22:14:40.517Z,70.70
2018-09-05T22:17:08.538Z,70.52
2018-09-05T22:19:36.581Z,69.80
2018-09-05T22:22:04.588Z,69.96
2018-09-05T22:24:32.600Z,70.03
2018-09-05T22:27:00.636Z,69.68
2018-09-05T22:29:28.625Z,70.57
2018-09-05T22:31:56.784Z,69.88
2018-09-05T22:34:24.817Z,70.43
2018-09-05T22:36:52.824Z,70.22
2018-09-05T22:39:20.849Z,70.83
2018-09-05T22:41:48.860Z,71.57
2018-09-05T22:44:28.254Z,71.08
2018-09-05T22:47:07.730Z,71.37
2018-09-05T22:52:57.277Z,71.98
2018-09-05T22:56:39.418Z,71.91
2018-09-05T22:59:15.949Z,72.58
2018-09-05T23:04:01.278Z,73.14
2018-09-05T23:06:39.325Z,72.93
2018-09-05T23:09:08.574Z,73.63
2018-09-05T23:12:00.021Z,73.47
2018-09-05T23:14:40.297Z,72.76
2018-09-05T23:17:20.221Z,73.62
2018-09-05T23:20:03.981Z,72.67
2018-09-05T23:22:43.231Z,72.67
2018-09-05T23:25:11.236Z,73.12
2018-09-05T23:27:39.263Z,73.43
2018-09-05T23:30:07.425Z,73.34
2018-09-05T23:32:35.493Z,73.34
2018-09-05T23:35:03.544Z,72.50
2018-09-05T23:37:31.546Z,72.53
2018-09-05T23:40:00.557Z,72.83
2018-09-05T23:42:28.625Z,72.96
2018-09-05T23:44:56.889Z,72.21
2018-09-05T23:47:24.914Z,72.93
2018-09-05T23:49:52.926Z,73.42
2018-09-05T23:52:20.995Z,73.31
2018-09-05T23:54:49.051Z,73.64
2018-09-05T23:57:17.013Z,73.06
2018-09-05T23:59:45.131Z,73.50
